createdAt,value
2022-08-05T00:00:46.717Z,65990.00
2022-08-05T00:03:16.770Z,65981.22
2022-08-05T00:06:04.978Z,65977.50
2022-08-05T00:08:34.900Z,65986.47
2022-08-05T00:11:05.187Z,65981.22
2022-08-05T00:13:47.321Z,65979.16
2022-08-05T00:16:20.066Z,65984.97
2022-08-05T00:19:04.209Z,65985.16
2022-08-05T00:21:30.832Z,65975.28
2022-08-05T00:24:10.691Z,65968.59
2022-08-05T00:26:38.447Z,65971.75
2022-08-05T00:29:04.880Z,65975.34
2022-08-05T00:31:54.420Z,65966.19
2022-08-05T00:34:53.307Z,65956.88
2022-08-05T00:37:12.847Z,65963.97
2022-08-05T00:39:58.573Z,65959.50
2022-08-05T00:42:37.525Z,65959.88
2022-08-05T00:45:06.619Z,65939.94
2022-08-05T00:47:56.434Z,65943.16
2022-08-05T00:50:25.061Z,65937.75
2022-08-05T00:52:52.132Z,65945.78
2022-08-05T00:55:19.797Z,65940.19
2022-08-05T00:57:55.338Z,65932.34
2022-08-05T01:00:29.354Z,65927.16
2022-08-05T01:02:57.008Z,65916.41
2022-08-05T01:05:24.063Z,65909.56
2022-08-05T01:08:41.291Z,65908.59
2022-08-05T01:11:10.014Z,65909.34
2022-08-05T01:13:58.658Z,65905.81
2022-08-05T01:17:01.224Z,65901.13
2022-08-05T01:20:01.292Z,65903.75
2022-08-05T01:22:47.066Z,65901.53
2022-08-05T01:25:41.648Z,65898.19
2022-08-05T01:28:26.184Z,65900.25
2022-08-05T01:30:57.062Z,65897.88
2022-08-05T01:33:29.473Z,65900.81
2022-08-05T01:36:12.889Z,65890.56
2022-08-05T01:38:40.793Z,65893.75
2022-08-05T01:41:07.939Z,65894.84
2022-08-05T01:43:35.628Z,65895.41
2022-08-05T01:48:44.793Z,65888.72
2022-08-05T01:51:18.136Z,65876.47
2022-08-05T01:53:57.663Z,65873.13
2022-08-05T01:58:12.870Z,65877.03
2022-08-05T01:59:20.159Z,65878.69
2022-08-05T02:01:49.559Z,65882.59
2022-08-05T02:04:20.121Z,65875.91
2022-08-05T02:06:47.694Z,65870.34
2022-08-05T02:11:52.186Z,65864.38
2022-08-05T02:14:27.548Z,65864.38
2022-08-05T02:16:57.789Z,65861.44
2022-08-05T02:19:27.768Z,65870.56
2022-08-05T02:22:26.710Z,65862.53
2022-08-05T02:25:01.747Z,65851.63
2022-08-05T02:27:58.018Z,65854.97
2022-08-05T02:30:17.746Z,65845.28
2022-08-05T02:32:48.029Z,65834.88
2022-08-05T02:35:22.140Z,65837.88
2022-08-05T02:37:59.115Z,65835.25
2022-08-05T02:40:26.908Z,65836.22
2022-08-05T02:42:55.416Z,65835.81
2022-08-05T02:48:07.305Z,65832.47
2022-08-05T02:50:46.924Z,65840.81
2022-08-05T02:53:18.939Z,65838.59
2022-08-05T02:55:54.652Z,65836.53
2022-08-05T02:58:26.697Z,65835.25
2022-08-05T03:03:23.384Z,65831.75
2022-08-05T03:06:53.761Z,65828.59
2022-08-05T03:14:07.903Z,65815.59
2022-08-05T03:16:35.814Z,65804.25
2022-08-05T03:21:41.299Z,65808.13
2022-08-05T03:24:09.361Z,65810.03
2022-08-05T03:26:39.759Z,65800.00
2022-08-05T03:29:06.238Z,65787.91
2022-08-05T03:31:55.693Z,65780.88
2022-08-05T03:34:24.345Z,65768.63
2022-08-05T03:36:50.957Z,65777.19
2022-08-05T03:39:20.156Z,65765.84
2022-08-05T03:41:53.966Z,65763.44
2022-08-05T03:44:22.984Z,65759.00
2022-08-05T03:49:15.924Z,65759.94
2022-08-05T03:52:38.609Z,65763.28
2022-08-05T03:55:52.348Z,65770.13
2022-08-05T03:57:44.356Z,65767.91
2022-08-05T04:02:57.832Z,65770.13
2022-08-05T04:05:33.696Z,65751.38
2022-08-05T04:08:30.271Z,65742.31
2022-08-05T04:10:53.868Z,65742.88
2022-08-05T04:13:21.725Z,65743.78
2022-08-05T04:15:52.642Z,65738.56
2022-08-05T04:18:30.123Z,65744.34
2022-08-05T04:20:57.663Z,65739.75
2022-08-05T04:26:13.627Z,65742.88
2022-08-05T04:28:40.099Z,65745.25
2022-08-05T04:31:18.881Z,65749.75
2022-08-05T04:34:18.480Z,65755.31
2022-08-05T04:36:45.510Z,65754.38
2022-08-05T04:41:42.416Z,65755.88
2022-08-05T04:44:10.737Z,65752.13
2022-08-05T04:46:38.275Z,65758.25
2022-08-05T04:49:05.960Z,65757.72
2022-08-05T04:51:38.824Z,65754.53
2022-08-05T04:54:05.357Z,65759.16
2022-08-05T04:56:36.757Z,65756.75
2022-08-05T04:59:21.426Z,65753.59
2022-08-05T05:02:07.035Z,65763.44
2022-08-05T05:04:38.249Z,65765.69
2022-08-05T05:07:04.942Z,65763.44
2022-08-05T05:09:37.407Z,65763.63
2022-08-05T05:12:05.009Z,65771.84
2022-08-05T05:14:32.747Z,65760.81
2022-08-05T05:17:00.276Z,65760.81
2022-08-05T05:19:36.623Z,65761.22
2022-08-05T05:22:24.576Z,65754.53
2022-08-05T05:24:58.937Z,65756.94
2022-08-05T05:30:29.292Z,65753.44
2022-08-05T05:33:00.986Z,65754.53
2022-08-05T05:35:37.937Z,65748.97
2022-08-05T05:38:13.121Z,65753.97
2022-08-05T05:40:48.369Z,65759.75
2022-08-05T05:43:22.243Z,65757.88
2022-08-05T05:46:05.119Z,65759.56
2022-08-05T05:48:32.204Z,65752.25
2022-08-05T05:53:54.550Z,65759.00
2022-08-05T05:59:03.292Z,65765.56
2022-08-05T06:01:38.091Z,65756.19
2022-08-05T06:04:11.384Z,65758.44
2022-08-05T06:06:41.756Z,65764.22
2022-08-05T06:09:09.053Z,65750.03
2022-08-05T06:11:59.316Z,65758.06
2022-08-05T06:19:26.031Z,65762.72
2022-08-05T06:22:02.279Z,65758.06
2022-08-05T06:24:28.647Z,65756.75
2022-08-05T06:26:55.489Z,65743.41
2022-08-05T06:29:25.185Z,65738.97
2022-08-05T06:32:21.408Z,65737.47
2022-08-05T06:34:56.373Z,65732.69
2022-08-05T06:37:52.261Z,65718.38
2022-08-05T06:40:11.857Z,65721.56
2022-08-05T06:42:39.728Z,65711.16
2022-08-05T06:45:08.941Z,65706.16
2022-08-05T06:48:47.134Z,65700.75
2022-08-05T06:50:23.065Z,65689.06
2022-08-05T06:52:58.696Z,65687.38
2022-08-05T06:55:30.116Z,65686.09
2022-08-05T07:03:13.839Z,65684.59
2022-08-05T07:05:43.335Z,65703.06
2022-08-05T07:08:10.616Z,65706.78
2022-08-05T07:10:37.949Z,65684.66
2022-08-05T07:13:57.211Z,65679.06
2022-08-05T07:22:00.585Z,65679.41
2022-08-05T07:26:56.358Z,65684.66
2022-08-05T07:32:09.017Z,65678.72
2022-08-05T07:34:40.461Z,65671.81
2022-08-05T07:37:11.490Z,65670.16
2022-08-05T07:40:04.400Z,65665.69
2022-08-05T07:42:33.608Z,65673.88
2022-08-05T07:45:00.728Z,65668.88
2022-08-05T07:47:27.110Z,65667.75
2022-08-05T07:50:09.583Z,65664.03
2022-08-05T07:52:40.665Z,65667.75
2022-08-05T07:55:43.939Z,65661.09
2022-08-05T07:57:57.509Z,65659.25
2022-08-05T08:00:29.079Z,65654.34
2022-08-05T08:03:15.088Z,65655.19
2022-08-05T08:05:49.334Z,65651.78
2022-08-05T08:08:16.550Z,65651.09
2022-08-05T08:10:49.053Z,65645.50
2022-08-05T08:13:15.839Z,65644.00
2022-08-05T08:16:34.532Z,65653.75
2022-08-05T08:18:35.134Z,65639.59
2022-08-05T08:21:09.799Z,65646.25
2022-08-05T08:24:01.502Z,65660.75
2022-08-05T08:28:59.753Z,65651.09
2022-08-05T08:36:50.162Z,65647.03
2022-08-05T08:39:19.510Z,65645.34
2022-08-05T08:41:52.612Z,65645.34
2022-08-05T08:45:17.855Z,65652.25
2022-08-05T08:48:07.079Z,65652.03
2022-08-05T08:50:31.580Z,65645.13
2022-08-05T08:53:07.926Z,65647.72
2022-08-05T08:56:04.692Z,65649.41
2022-08-05T08:58:43.897Z,65659.63
2022-08-05T09:01:16.263Z,65651.09
2022-08-05T09:03:46.239Z,65657.41
2022-08-05T09:06:17.134Z,65653.13
2022-08-05T09:08:46.795Z,65653.31
2022-08-05T09:11:14.783Z,65658.13
2022-08-05T09:14:01.068Z,65660.53
2022-08-05T09:16:29.285Z,65661.81
2022-08-05T09:18:55.761Z,65665.16
2022-08-05T09:24:14.659Z,65673.31
2022-08-05T09:26:46.062Z,65674.97
2022-08-05T09:29:17.583Z,65673.31
2022-08-05T09:32:51.273Z,65667.72
2022-08-05T09:38:12.632Z,65684.44
2022-08-05T09:40:29.566Z,65687.38
2022-08-05T09:42:56.086Z,65693.56
2022-08-05T09:46:06.696Z,65690.94
2022-08-05T09:48:31.481Z,65690.56
2022-08-05T09:53:54.704Z,65683.88
2022-08-05T09:56:14.420Z,65694.66
2022-08-05T09:58:42.398Z,65688.88
2022-08-05T10:01:14.616Z,65694.44
2022-08-05T10:03:58.701Z,65691.81
2022-08-05T10:06:27.595Z,65699.63
2022-08-05T10:08:55.667Z,65706.00
2022-08-05T10:11:22.976Z,65701.13
2022-08-05T10:13:49.798Z,65713.03
2022-08-05T10:16:42.080Z,65709.09
2022-08-05T10:21:59.058Z,65720.81
2022-08-05T10:24:27.169Z,65727.84
2022-08-05T10:30:06.951Z,65750.88
2022-08-05T10:35:02.976Z,65754.16
2022-08-05T10:42:50.597Z,65769.72
2022-08-05T10:45:40.509Z,65777.91
2022-08-05T10:48:57.105Z,65786.66
2022-08-05T10:51:29.107Z,65789.44
2022-08-05T10:54:02.045Z,65806.47
2022-08-05T10:56:45.678Z,65808.69
2022-08-05T11:00:03.770Z,65813.16
2022-08-05T11:02:14.463Z,65829.84
2022-08-05T11:04:58.054Z,65845.84
2022-08-05T11:07:33.327Z,65858.81
2022-08-05T11:10:22.107Z,65856.91
2022-08-05T11:15:59.210Z,65884.44
2022-08-05T11:24:03.405Z,65900.81
2022-08-05T11:26:32.960Z,65909.34
2022-08-05T11:29:12.890Z,65915.47
2022-08-05T11:31:56.361Z,65923.66
2022-08-05T11:34:51.638Z,65917.06
2022-08-05T11:38:26.653Z,65919.53
2022-08-05T11:44:04.602Z,65920.09
2022-08-05T11:46:16.045Z,65932.72
2022-08-05T11:48:55.649Z,65941.03
2022-08-05T11:51:43.754Z,65944.94
2022-08-05T11:54:15.507Z,65964.66
2022-08-05T11:59:22.853Z,65975.09
2022-08-05T12:04:19.478Z,65996.84
2022-08-05T12:06:49.142Z,66001.97
2022-08-05T12:12:06.547Z,66040.91
2022-08-05T12:14:43.373Z,66026.00
2022-08-05T12:20:25.726Z,66022.09
2022-08-05T12:25:18.302Z,66010.38
2022-08-05T12:27:53.140Z,66004.66
2022-08-05T12:30:22.294Z,66003.69
2022-08-05T12:32:58.561Z,66002.56
2022-08-05T12:38:07.110Z,66007.44
2022-08-05T12:43:06.795Z,65992.00
2022-08-05T12:48:26.959Z,65981.97
2022-08-05T12:54:23.365Z,65984.00
2022-08-05T12:56:58.841Z,65980.84
2022-08-05T13:02:21.821Z,65992.22
2022-08-05T13:04:55.031Z,65999.63
2022-08-05T13:07:47.839Z,66013.75
2022-08-05T13:10:19.584Z,66027.50
2022-08-05T13:15:41.494Z,66048.94
2022-08-05T13:18:19.696Z,66064.28
2022-08-05T13:20:46.485Z,66095.72
2022-08-05T13:30:53.294Z,66100.75
2022-08-05T13:34:20.955Z,66089.94
2022-08-05T13:36:09.133Z,66071.53
2022-08-05T13:41:05.897Z,66064.56
2022-08-05T13:43:44.366Z,66065.44
2022-08-05T13:48:57.193Z,66056.47
2022-08-05T13:56:24.714Z,66066.00
2022-08-05T13:58:52.828Z,66077.34
2022-08-05T14:01:25.844Z,66085.94
2022-08-05T14:06:47.938Z,66080.91
2022-08-05T14:14:42.510Z,66075.50
2022-08-05T14:32:27.253Z,66148.19
2022-08-05T14:34:56.687Z,66156.38
2022-08-05T14:37:45.367Z,66150.22
2022-08-05T14:40:13.975Z,66160.88
2022-08-05T14:42:43.037Z,66167.03
2022-08-05T14:52:56.765Z,66234.50
2022-08-05T14:58:11.848Z,66282.25
2022-08-05T15:00:59.717Z,66309.31
2022-08-05T15:03:33.518Z,66298.22
2022-08-05T15:11:52.656Z,66262.13
2022-08-05T15:17:01.253Z,66257.47
2022-08-05T15:19:27.786Z,66266.47
2022-08-05T15:21:54.327Z,66275.53
2022-08-05T15:24:26.857Z,66283.78
2022-08-05T15:26:53.264Z,66282.09
2022-08-05T15:31:52.887Z,66302.94
2022-08-05T15:34:33.141Z,66318.00
2022-08-05T15:37:06.076Z,66329.66
2022-08-05T15:42:49.927Z,66317.28
2022-08-05T15:45:06.866Z,66285.91
2022-08-05T15:47:36.147Z,66289.53
2022-08-05T15:50:03.345Z,66305.16
2022-08-05T15:52:53.586Z,66307.41
2022-08-05T15:57:50.849Z,66316.66
2022-08-05T16:03:04.627Z,66305.00
2022-08-05T16:05:32.089Z,66303.31
2022-08-05T16:07:58.777Z,66294.78
2022-08-05T16:12:55.970Z,66240.25
2022-08-05T16:15:23.170Z,66243.34
2022-08-05T16:20:25.522Z,66213.28
2022-08-05T16:22:51.925Z,66218.00
2022-08-05T16:25:18.490Z,66229.97
2022-08-05T16:33:00.046Z,66236.41
2022-08-05T16:35:32.471Z,66256.88
2022-08-05T16:38:16.174Z,66250.78
2022-08-05T16:40:47.691Z,66228.44
2022-08-05T16:43:18.729Z,66224.53
2022-08-05T16:46:03.762Z,66236.97
2022-08-05T16:48:33.479Z,66246.72
2022-08-05T16:53:32.123Z,66233.63
2022-08-05T16:56:14.752Z,66232.91
2022-08-05T16:58:41.353Z,66223.97
2022-08-05T17:01:10.403Z,66211.69
2022-08-05T17:03:37.288Z,66200.69
2022-08-05T17:08:51.753Z,66159.22
2022-08-05T17:13:45.907Z,66167.25
2022-08-05T17:16:32.764Z,66143.50
2022-08-05T17:18:59.827Z,66147.09
2022-08-05T17:21:26.241Z,66124.75
2022-08-05T17:26:49.651Z,66128.50
2022-08-05T17:34:29.927Z,66139.91
2022-08-05T17:36:58.477Z,66127.94
2022-08-05T17:39:33.515Z,66106.72
2022-08-05T17:42:19.658Z,66096.28
2022-08-05T17:44:50.403Z,66095.97
2022-08-05T17:47:22.122Z,66104.56
2022-08-05T17:50:03.504Z,66082.81
2022-08-05T17:52:32.087Z,66072.16
2022-08-05T17:54:58.834Z,66057.66
2022-08-05T17:57:25.302Z,66047.75
2022-08-05T18:02:32.827Z,66041.59
2022-08-05T18:05:02.740Z,66038.66
2022-08-05T18:10:09.927Z,66018.53
2022-08-05T18:12:37.031Z,66015.41
2022-08-05T18:15:04.750Z,66015.63
2022-08-05T18:20:19.366Z,66002.97
2022-08-05T18:22:57.251Z,65986.41
2022-08-05T18:25:25.152Z,65981.22
2022-08-05T18:27:59.019Z,65976.22
2022-08-05T18:30:32.167Z,65972.72
2022-08-05T18:33:00.325Z,65965.22
2022-08-05T18:36:00.609Z,65961.19
2022-08-05T18:38:16.416Z,65974.44
2022-08-05T18:43:38.380Z,65952.75
2022-08-05T18:46:09.955Z,65955.03
2022-08-05T18:54:13.270Z,65940.72
2022-08-05T18:56:40.284Z,65938.31
2022-08-05T18:59:41.940Z,65935.50
2022-08-05T19:01:56.994Z,65934.97
2022-08-05T19:06:51.874Z,65930.50
2022-08-05T19:09:20.535Z,65922.88
2022-08-05T19:12:00.327Z,65910.84
2022-08-05T19:14:44.944Z,65909.34
2022-08-05T19:17:15.488Z,65905.59
2022-08-05T19:19:46.896Z,65897.88
2022-08-05T19:24:54.593Z,65876.63
2022-08-05T19:29:49.929Z,65885.94
2022-08-05T19:32:16.394Z,65872.75
2022-08-05T19:34:54.938Z,65876.28
2022-08-05T19:40:01.882Z,65857.53
2022-08-05T19:42:35.574Z,65853.81
2022-08-05T19:45:05.766Z,65849.34
2022-08-05T19:47:34.004Z,65840.28
2022-08-05T19:50:00.910Z,65830.75
2022-08-05T19:52:31.377Z,65829.84
2022-08-05T19:57:48.973Z,65818.16
2022-08-05T20:00:20.742Z,65810.38
2022-08-05T20:02:47.395Z,65799.78
2022-08-05T20:05:16.544Z,65802.03
2022-08-05T20:07:53.876Z,65796.84
2022-08-05T20:10:24.984Z,65779.69
2022-08-05T20:18:10.288Z,65779.97
2022-08-05T20:20:55.119Z,65774.03
2022-08-05T20:23:22.847Z,65764.19
2022-08-05T20:25:49.379Z,65767.91
2022-08-05T20:30:45.258Z,65754.19
2022-08-05T20:33:14.279Z,65749.91
2022-08-05T20:35:45.630Z,65750.88
2022-08-05T20:40:53.204Z,65741.97
2022-08-05T20:43:57.717Z,65732.84
2022-08-05T20:46:10.057Z,65730.78
2022-08-05T20:48:38.958Z,65735.63
2022-08-05T20:51:08.725Z,65729.66
2022-08-05T20:53:40.791Z,65721.16
2022-08-05T20:56:09.735Z,65701.88
2022-08-05T20:58:36.988Z,65703.38
2022-08-05T21:01:04.492Z,65701.53
2022-08-05T21:03:34.724Z,65689.59
2022-08-05T21:06:01.774Z,65699.66
2022-08-05T21:11:12.766Z,65685.53
2022-08-05T21:13:55.544Z,65682.22
2022-08-05T21:19:00.926Z,65674.63
2022-08-05T21:26:53.557Z,65661.09
2022-08-05T21:31:58.741Z,65659.06
2022-08-05T21:34:25.142Z,65647.38
2022-08-05T21:36:51.612Z,65653.31
2022-08-05T21:39:26.611Z,65642.75
2022-08-05T21:42:01.984Z,65638.13
2022-08-05T21:44:30.122Z,65637.72
2022-08-05T21:46:58.223Z,65633.31
2022-08-05T21:49:58.604Z,65642.94
2022-08-05T21:57:31.276Z,65615.88
2022-08-05T22:00:10.691Z,65607.16
2022-08-05T22:02:41.699Z,65600.13
2022-08-05T22:05:10.054Z,65597.16
2022-08-05T22:07:54.233Z,65588.84
2022-08-05T22:10:26.787Z,65589.03
2022-08-05T22:12:59.029Z,65581.06
2022-08-05T22:16:01.367Z,65578.25
2022-08-05T22:18:22.963Z,65569.38
2022-08-05T22:20:52.610Z,65569.59
2022-08-05T22:29:17.336Z,65556.03
2022-08-05T22:31:45.300Z,65554.00
2022-08-05T22:36:52.275Z,65558.25
2022-08-05T22:39:21.379Z,65552.69
2022-08-05T22:42:09.646Z,65548.81
2022-08-05T22:44:34.555Z,65560.75
2022-08-05T22:47:00.970Z,65548.81
2022-08-05T22:50:20.557Z,65554.22
2022-08-05T22:52:22.774Z,65547.91
2022-08-05T22:57:23.419Z,65542.34
2022-08-05T22:59:53.840Z,65533.81
2022-08-05T23:02:29.183Z,65530.88
2022-08-05T23:04:57.806Z,65524.38
2022-08-05T23:07:28.901Z,65519.94
2022-08-05T23:10:01.192Z,65515.47
2022-08-05T23:15:03.416Z,65526.47
2022-08-05T23:17:34.284Z,65521.09
2022-08-05T23:20:15.497Z,65521.63
2022-08-05T23:22:47.518Z,65519.25
2022-08-05T23:25:50.337Z,65504.56
2022-08-05T23:28:01.536Z,65506.22
2022-08-05T23:30:29.235Z,65496.22
2022-08-05T23:32:58.023Z,65492.34
2022-08-05T23:35:28.509Z,65494.41
2022-08-05T23:38:00.865Z,65485.53
2022-08-05T23:42:54.074Z,65473.84
2022-08-05T23:45:20.821Z,65469.97
2022-08-05T23:47:50.355Z,65468.13
2022-08-05T23:50:20.508Z,65458.47
2022-08-05T23:52:49.758Z,65451.84
2022-08-05T23:55:17.815Z,65447.78
2022-08-05T23:57:44.205Z,65440.16
